Lusaka, Zambia
Current Conditions -  °F | °C
As of 8:00 AM on Sunday 26 Oct 2014 (Local Time) from FVHA Reporting Station
Clear Clear  
Wind Chill: 21°   Ceiling: Unl
Heat Index: 21°   Visibility: 6mi
Dew Point: 15°   Wind: 12mph
Humidity: 68%   Direction: 130°SE
Pressure: 30.24"   Gusts: NA
Location:  15.42°S, 28.29°E
Report Text: FVHA 260600Z 13010KT 090V160 CAVOK 21/15 Q1024 NOSIG
Loading
Personal Weather Stations






























Interactive Weather Map
Tropical Storm Tracking
New forecast layout! Learn more

10-Day Weather Forecast

Advertisements
Track Severe Weather on mobile